Time;durP1;ratioP1;P1;durP2;ratioP2;P2;SDS_P1;SDS_P2;PMS_P1;PMS_P2;Temp;Humidity;BMP_temperature;BMP_pressure;BME280_temperature;BME280_humidity;BME280_pressure;Samples;Min_cycle;Max_cycle;Signal;HPM_P1;HPM_P2
2023/09/13 00:02:11;;;;;;;;;;;;;;;13.67;77.73;95469.38;5099172;28;1107;-56
2023/09/13 00:04:56;;;;;;;;;;;;;;;13.63;78.20;95470.75;5117701;28;1580;-56
2023/09/13 00:07:22;;;;;;;;;;;;;;;13.55;78.19;95473.47;5117455;28;1044;-56
2023/09/13 00:09:48;;;;;;;;;;;;;;;13.29;79.49;95477.16;5117620;28;1040;-56
2023/09/13 00:12:14;;;;;;;;;;;;;;;13.11;80.35;95468.44;5117170;28;1040;-56
2023/09/13 00:14:40;;;;;;;;;;;;;;;13.16;80.14;95461.56;5117322;28;977;-56
2023/09/13 00:17:06;;;;;;;;;;;;;;;13.24;79.91;95466.94;5117133;28;1016;-56
2023/09/13 00:19:32;;;;;;;;;;;;;;;13.48;78.44;95466.06;5117179;28;1905;-56
2023/09/13 00:21:58;;;;;;;;;;;;;;;13.76;76.99;95467.53;5117283;28;999;-56
2023/09/13 00:24:24;;;;;;;;;;;;;;;13.85;76.44;95469.19;5117127;28;961;-56
2023/09/13 00:26:50;;;;;;;;;;;;;;;13.79;76.52;95465.34;5116989;28;921;-56
2023/09/13 00:29:16;;;;;;;;;;;;;;;13.75;77.04;95471.22;5117171;28;945;-56
2023/09/13 00:31:42;;;;;;;;;;;;;;;13.57;77.98;95469.59;5116779;28;1076;-56
2023/09/13 00:34:08;;;;;;;;;;;;;;;13.36;78.78;95475.50;5117119;28;1035;-56
2023/09/13 00:36:33;;;;;;;;;;;;;;;13.37;78.69;95474.47;5117029;28;1059;-56
2023/09/13 00:38:59;;;;;;;;;;;;;;;13.33;79.00;95469.63;5116971;28;1988;-57
2023/09/13 00:41:25;;;;;;;;;;;;;;;13.30;79.27;95470.81;5116582;28;1052;-56
2023/09/13 00:43:52;;;;;;;;;;;;;;;13.21;79.30;95464.56;5116635;28;1049;-56
2023/09/13 00:46:18;;;;;;;;;;;;;;;13.19;79.64;95471.97;5116770;28;1022;-56
2023/09/13 00:48:44;;;;;;;;;;;;;;;13.20;79.71;95473.66;5116514;28;1024;-56
2023/09/13 00:51:10;;;;;;;;;;;;;;;13.04;79.75;95479.84;5116631;28;965;-56
2023/09/13 00:53:36;;;;;;;;;;;;;;;12.83;80.44;95474.16;5116782;28;1032;-56
2023/09/13 00:56:03;;;;;;;;;;;;;;;12.72;81.40;95479.84;5116532;28;1011;-56
2023/09/13 00:58:30;;;;;;;;;;;;;;;12.80;81.18;95478.00;5116495;28;1890;-55
2023/09/13 01:00:56;;;;;;;;;;;;;;;12.87;80.94;95472.81;5115147;28;1883;-56
2023/09/13 01:03:23;;;;;;;;;;;;;;;12.92;80.58;95478.53;5116250;28;1079;-57
2023/09/13 01:05:52;;;;;;;;;;;;;;;13.03;80.11;95480.03;5116458;28;972;-56
2023/09/13 01:08:19;;;;;;;;;;;;;;;12.84;80.73;95478.50;5116236;28;955;-55
2023/09/13 01:10:46;;;;;;;;;;;;;;;12.63;81.55;95471.78;5116294;28;977;-56
2023/09/13 01:13:12;;;;;;;;;;;;;;;12.58;81.63;95474.13;5116503;28;1036;-56
2023/09/13 01:15:42;;;;;;;;;;;;;;;12.69;81.42;95470.28;5116552;28;1060;-56
2023/09/13 01:18:18;;;;;;;;;;;;;;;12.93;80.17;95469.47;5116224;28;1902;-56
2023/09/13 01:20:48;;;;;;;;;;;;;;;13.09;79.30;95466.78;5116279;28;1027;-56
2023/09/13 01:23:23;;;;;;;;;;;;;;;13.11;79.07;95479.19;5115942;28;1053;-56
2023/09/13 01:25:49;;;;;;;;;;;;;;;13.01;79.59;95479.34;5115977;28;944;-56
2023/09/13 01:28:35;;;;;;;;;;;;;;;12.91;80.02;95476.84;5115688;28;966;-56
2023/09/13 01:31:04;;;;;;;;;;;;;;;12.86;80.68;95481.88;5115957;28;1047;-55
2023/09/13 01:33:30;;;;;;;;;;;;;;;12.69;80.78;95487.25;5115690;28;1048;-57
2023/09/13 01:35:56;;;;;;;;;;;;;;;12.74;80.73;95478.69;5115912;28;1044;-56
2023/09/13 01:38:22;;;;;;;;;;;;;;;12.62;80.79;95483.53;5115764;28;1921;-56
2023/09/13 01:40:48;;;;;;;;;;;;;;;12.51;81.68;95478.47;5115451;28;1056;-56
2023/09/13 01:43:14;;;;;;;;;;;;;;;12.33;82.58;95480.44;5115675;28;1052;-56
2023/09/13 01:45:41;;;;;;;;;;;;;;;12.18;83.38;95477.56;5115780;28;1148;-56
2023/09/13 01:48:09;;;;;;;;;;;;;;;12.29;82.80;95477.25;5115555;28;967;-56
2023/09/13 01:50:36;;;;;;;;;;;;;;;12.40;82.53;95478.78;5115485;28;1049;-56
2023/09/13 01:53:03;;;;;;;;;;;;;;;12.40;82.38;95482.31;5115362;28;1044;-56
2023/09/13 01:55:29;;;;;;;;;;;;;;;12.46;81.99;95476.31;5115614;28;1005;-56
2023/09/13 01:57:55;;;;;;;;;;;;;;;12.44;82.31;95477.47;5112241;28;1311;-56
2023/09/13 02:00:21;;;;;;;;;;;;;;;12.28;82.81;95484.47;5094598;28;1898;-56
2023/09/13 02:02:47;;;;;;;;;;;;;;;12.36;82.26;95480.97;5098678;28;1076;-57
2023/09/13 02:05:13;;;;;;;;;;;;;;;12.44;81.76;95477.47;5115348;28;976;-57
2023/09/13 02:07:39;;;;;;;;;;;;;;;12.31;82.24;95477.94;5097056;28;1059;-57
2023/09/13 02:10:05;;;;;;;;;;;;;;;12.20;83.04;95472.88;5114906;28;1018;-57
2023/09/13 02:12:31;;;;;;;;;;;;;;;12.30;82.63;95476.25;5114821;28;960;-57
2023/09/13 02:14:57;;;;;;;;;;;;;;;12.40;82.45;95478.78;5114865;28;1044;-56
2023/09/13 02:17:23;;;;;;;;;;;;;;;12.46;81.50;95475.44;5114892;28;1032;-56
2023/09/13 02:19:50;;;;;;;;;;;;;;;12.45;81.46;95476.47;5114689;28;1929;-56
2023/09/13 02:22:16;;;;;;;;;;;;;;;12.38;81.57;95475.44;5114739;28;995;-56
2023/09/13 02:24:42;;;;;;;;;;;;;;;12.37;81.67;95487.16;5114590;28;1297;-56
2023/09/13 02:27:08;;;;;;;;;;;;;;;12.43;81.53;95470.44;5114573;28;1087;-57
2023/09/13 02:29:34;;;;;;;;;;;;;;;12.40;81.56;95476.94;5114824;28;1126;-57
2023/09/13 02:32:00;;;;;;;;;;;;;;;12.36;81.55;95483.66;5114808;28;1029;-56
2023/09/13 02:34:26;;;;;;;;;;;;;;;12.34;81.53;95490.19;5114739;28;953;-57
2023/09/13 02:36:52;;;;;;;;;;;;;;;12.21;81.85;95483.44;5114463;28;1024;-58
2023/09/13 02:39:34;;;;;;;;;;;;;;;12.03;82.48;95496.94;5114201;28;1988;-57
2023/09/13 02:42:01;;;;;;;;;;;;;;;12.00;83.17;95493.75;5114654;28;1196;-57
2023/09/13 02:44:27;;;;;;;;;;;;;;;11.99;83.22;95490.25;5114422;28;1060;-56
2023/09/13 02:46:53;;;;;;;;;;;;;;;12.20;82.49;95489.81;5114241;28;1120;-56
2023/09/13 02:49:19;;;;;;;;;;;;;;;12.29;82.01;95496.03;5114151;28;984;-57
2023/09/13 02:51:47;;;;;;;;;;;;;;;12.27;81.82;95498.88;5114203;28;1080;-57
2023/09/13 02:54:14;;;;;;;;;;;;;;;12.14;82.61;95498.50;5114060;28;1049;-57
2023/09/13 02:56:40;;;;;;;;;;;;;;;12.05;82.53;95500.31;5114133;28;1075;-56
2023/09/13 02:59:06;;;;;;;;;;;;;;;12.02;82.52;95500.63;5126799;27;1933;-56
2023/09/13 03:01:31;;;;;;;;;;;;;;;12.01;82.46;95507.00;5134585;27;1083;-56
2023/09/13 03:03:57;;;;;;;;;;;;;;;12.26;81.62;95497.19;5120620;27;1072;-58
2023/09/13 03:06:23;;;;;;;;;;;;;;;12.10;81.73;95505.16;5114190;28;1215;-57
2023/09/13 03:08:49;;;;;;;;;;;;;;;11.99;82.22;95506.31;5113955;28;1032;-57
2023/09/13 03:11:16;;;;;;;;;;;;;;;11.96;82.50;95503.13;5114154;28;1168;-56
2023/09/13 03:13:43;;;;;;;;;;;;;;;11.94;82.87;95514.00;5114120;28;1109;-56
2023/09/13 03:16:12;;;;;;;;;;;;;;;12.01;82.51;95503.47;5113868;28;907;-57
2023/09/13 03:18:38;;;;;;;;;;;;;;;12.03;82.79;95509.53;5113861;28;1917;-57
2023/09/13 03:21:08;;;;;;;;;;;;;;;12.06;82.53;95510.00;5113840;28;1094;-56
2023/09/13 03:23:37;;;;;;;;;;;;;;;12.04;82.45;95509.34;5113612;28;968;-57
2023/09/13 03:26:10;;;;;;;;;;;;;;;12.09;82.17;95504.34;5113846;28;992;-57
2023/09/13 03:28:36;;;;;;;;;;;;;;;12.25;81.13;95513.44;5113977;28;1006;-57
2023/09/13 03:31:07;;;;;;;;;;;;;;;12.33;80.91;95505.44;5113794;28;995;-57
2023/09/13 03:33:33;;;;;;;;;;;;;;;12.16;81.90;95517.09;5113698;28;1035;-56
2023/09/13 03:35:59;;;;;;;;;;;;;;;12.00;81.88;95507.97;5113957;28;1120;-56
2023/09/13 03:38:25;;;;;;;;;;;;;;;11.90;82.33;95513.47;5113544;28;1992;-57
2023/09/13 03:40:51;;;;;;;;;;;;;;;11.86;82.52;95514.78;5113655;28;1040;-57
2023/09/13 03:43:17;;;;;;;;;;;;;;;11.90;82.66;95518.00;5113517;28;1033;-58
2023/09/13 03:45:43;;;;;;;;;;;;;;;12.02;81.45;95518.56;5113909;28;1030;-57
2023/09/13 03:48:09;;;;;;;;;;;;;;;12.00;81.70;95523.22;5113631;28;1009;-57
2023/09/13 03:50:35;;;;;;;;;;;;;;;11.78;82.51;95517.41;5113336;28;1019;-57
2023/09/13 03:53:01;;;;;;;;;;;;;;;11.82;82.51;95526.81;5113853;28;978;-56
2023/09/13 03:55:28;;;;;;;;;;;;;;;11.75;83.68;95524.94;5113614;28;1049;-57
2023/09/13 03:57:54;;;;;;;;;;;;;;;11.69;83.93;95532.59;5110749;28;1304;-57
2023/09/13 04:00:20;;;;;;;;;;;;;;;11.79;83.63;95529.78;5093278;28;1909;-57
2023/09/13 04:02:47;;;;;;;;;;;;;;;11.81;83.40;95525.13;5096856;28;1108;-58
2023/09/13 04:05:13;;;;;;;;;;;;;;;11.94;82.75;95526.56;5113282;28;1075;-57
2023/09/13 04:07:39;;;;;;;;;;;;;;;11.77;82.93;95526.44;5113635;28;957;-57
2023/09/13 04:10:06;;;;;;;;;;;;;;;11.61;84.07;95519.16;5113583;28;1044;-57
2023/09/13 04:12:32;;;;;;;;;;;;;;;11.84;83.03;95523.97;5113424;28;972;-57
2023/09/13 04:14:58;;;;;;;;;;;;;;;11.99;82.33;95525.09;5113432;28;1075;-57
2023/09/13 04:17:24;;;;;;;;;;;;;;;12.05;82.10;95523.59;5113522;28;1004;-58
2023/09/13 04:19:50;;;;;;;;;;;;;;;12.17;81.50;95530.34;5113128;28;1914;-57
2023/09/13 04:22:16;;;;;;;;;;;;;;;11.94;82.45;95523.88;5113390;28;1122;-58
2023/09/13 04:24:45;;;;;;;;;;;;;;;11.91;82.57;95531.25;5095151;28;1092;-58
2023/09/13 04:27:11;;;;;;;;;;;;;;;11.95;82.88;95530.91;5113163;28;1056;-58
2023/09/13 04:29:40;;;;;;;;;;;;;;;11.79;83.43;95537.00;5113250;28;1040;-56
2023/09/13 04:32:06;;;;;;;;;;;;;;;11.80;83.71;95534.16;5113355;28;970;-56
2023/09/13 04:34:36;;;;;;;;;;;;;;;12.08;83.02;95534.84;5113013;28;1035;-57
2023/09/13 04:37:03;;;;;;;;;;;;;;;12.37;81.14;95527.38;5116669;28;950;-57
2023/09/13 04:39:31;;;;;;;;;;;;;;;12.25;81.77;95527.69;5116882;28;1913;-57
2023/09/13 04:42:00;;;;;;;;;;;;;;;12.15;82.33;95524.31;5116832;28;1025;-57
2023/09/13 04:44:26;;;;;;;;;;;;;;;12.21;82.09;95534.38;5116535;28;1016;-57
2023/09/13 04:46:52;;;;;;;;;;;;;;;12.41;81.68;95532.28;5116558;28;966;-57
2023/09/13 04:49:18;;;;;;;;;;;;;;;12.60;81.17;95531.16;5116492;28;1103;-57
2023/09/13 04:51:44;;;;;;;;;;;;;;;12.77;80.59;95528.50;5116557;28;1075;-57
2023/09/13 04:54:11;;;;;;;;;;;;;;;12.93;80.57;95528.50;5116528;28;1055;-57
2023/09/13 04:56:37;;;;;;;;;;;;;;;13.00;80.42;95537.56;5116748;28;965;-57
2023/09/13 04:59:04;;;;;;;;;;;;;;;13.04;80.75;95530.03;5129033;27;1917;-56
2023/09/13 05:01:30;;;;;;;;;;;;;;;13.07;80.78;95532.38;5136751;27;1032;-57
2023/09/13 05:03:57;;;;;;;;;;;;;;;13.33;80.21;95526.03;5123073;27;1080;-58
2023/09/13 05:06:24;;;;;;;;;;;;;;;13.59;79.73;95534.72;5116209;28;1031;-58
2023/09/13 05:08:52;;;;;;;;;;;;;;;13.78;78.80;95538.88;5116468;28;974;-57
2023/09/13 05:11:18;;;;;;;;;;;;;;;13.92;78.52;95537.34;5097987;28;1029;-57
2023/09/13 05:13:47;;;;;;;;;;;;;;;13.89;79.58;95542.22;5116387;28;1014;-57
2023/09/13 05:16:13;;;;;;;;;;;;;;;13.89;79.96;95545.75;5115884;28;1115;-57
2023/09/13 05:18:39;;;;;;;;;;;;;;;13.98;80.50;95551.94;5115929;28;1913;-56
2023/09/13 05:21:05;;;;;;;;;;;;;;;14.23;79.10;95544.66;5116171;28;974;-57
2023/09/13 05:23:31;;;;;;;;;;;;;;;14.54;76.89;95550.03;5115990;28;999;-58
2023/09/13 05:25:57;;;;;;;;;;;;;;;14.84;77.25;95547.56;5115769;28;1111;-58
2023/09/13 05:28:24;;;;;;;;;;;;;;;14.89;77.24;95545.19;5116075;28;1040;-57
2023/09/13 05:30:50;;;;;;;;;;;;;;;14.93;73.88;95537.56;5115724;28;1095;-57
2023/09/13 05:33:16;;;;;;;;;;;;;;;14.99;74.02;95540.38;5115887;28;1040;-57
2023/09/13 05:35:42;;;;;;;;;;;;;;;15.24;74.20;95532.13;5115681;28;1028;-58
2023/09/13 05:38:08;;;;;;;;;;;;;;;15.29;73.80;95535.13;5115608;28;1024;-57
2023/09/13 05:40:34;;;;;;;;;;;;;;;15.43;74.20;95542.41;5115402;28;1981;-57
2023/09/13 05:43:00;;;;;;;;;;;;;;;15.58;73.21;95544.31;5115609;28;966;-58
2023/09/13 05:45:26;;;;;;;;;;;;;;;15.72;73.80;95535.38;5115361;28;1038;-57
2023/09/13 05:47:52;;;;;;;;;;;;;;;15.98;71.76;95537.69;5115141;28;1011;-57
2023/09/13 05:50:18;;;;;;;;;;;;;;;16.27;70.30;95540.56;5115377;28;1008;-57
2023/09/13 05:52:44;;;;;;;;;;;;;;;16.61;68.46;95528.34;5115790;28;1007;-57
2023/09/13 05:55:10;;;;;;;;;;;;;;;16.63;68.47;95537.91;5115464;28;991;-56
2023/09/13 05:57:36;;;;;;;;;;;;;;;16.71;67.93;95537.81;5115081;28;1252;-57
2023/09/13 06:00:02;;;;;;;;;;;;;;;16.76;67.44;95523.75;5095009;28;1905;-57
2023/09/13 06:02:28;;;;;;;;;;;;;;;16.82;68.17;95531.09;5095958;28;1188;-57
2023/09/13 06:04:54;;;;;;;;;;;;;;;16.93;67.51;95517.09;5115428;28;1033;-56
2023/09/13 06:07:22;;;;;;;;;;;;;;;17.25;65.24;95525.75;5114936;28;1321;-56
2023/09/13 06:09:48;;;;;;;;;;;;;;;17.40;65.74;95519.44;5114974;28;1028;-56
2023/09/13 06:12:14;;;;;;;;;;;;;;;17.68;64.36;95517.59;5115181;28;961;-56
2023/09/13 06:14:41;;;;;;;;;;;;;;;17.88;62.88;95520.44;5114913;28;970;-56
2023/09/13 06:17:07;;;;;;;;;;;;;;;17.88;64.19;95520.44;5115129;28;1045;-57
2023/09/13 06:19:33;;;;;;;;;;;;;;;18.22;62.56;95518.78;5114880;28;2041;-56
2023/09/13 06:21:59;;;;;;;;;;;;;;;18.07;62.07;95527.03;5115045;28;1021;-56
2023/09/13 06:24:25;;;;;;;;;;;;;;;18.25;61.98;95521.09;5114945;28;990;-56
2023/09/13 06:26:52;;;;;;;;;;;;;;;18.44;62.25;95530.38;5114644;28;1041;-57
2023/09/13 06:29:18;;;;;;;;;;;;;;;18.65;61.75;95528.59;5114533;28;1031;-57
2023/09/13 06:31:44;;;;;;;;;;;;;;;18.76;62.37;95524.44;5114827;28;1045;-56
2023/09/13 06:34:10;;;;;;;;;;;;;;;18.88;59.79;95528.28;5114686;28;1051;-56
2023/09/13 06:36:36;;;;;;;;;;;;;;;18.76;61.50;95522.56;5114659;28;1019;-57
2023/09/13 06:39:02;;;;;;;;;;;;;;;18.88;60.33;95526.41;5114353;28;1983;-57
2023/09/13 06:41:28;;;;;;;;;;;;;;;19.17;59.66;95520.84;5096340;28;985;-57
2023/09/13 06:43:54;;;;;;;;;;;;;;;19.35;58.68;95523.81;5114316;28;1015;-56
2023/09/13 06:46:20;;;;;;;;;;;;;;;19.63;57.22;95534.44;5114244;28;1032;-57
2023/09/13 06:48:46;;;;;;;;;;;;;;;19.84;56.91;95536.16;5114500;28;964;-56
2023/09/13 06:51:12;;;;;;;;;;;;;;;19.94;55.95;95537.59;5114431;28;1048;-57
2023/09/13 06:53:38;;;;;;;;;;;;;;;19.94;57.00;95533.03;5114136;28;1040;-56
2023/09/13 06:56:04;;;;;;;;;;;;;;;19.82;57.53;95534.69;5114113;28;1107;-55
2023/09/13 06:58:30;;;;;;;;;;;;;;;19.99;57.10;95537.81;5121221;27;2008;-55
2023/09/13 07:00:56;;;;;;;;;;;;;;;20.38;55.80;95542.31;5134245;27;1043;-55
2023/09/13 07:03:22;;;;;;;;;;;;;;;20.53;56.19;95533.09;5125749;27;1084;-55
2023/09/13 07:05:49;;;;;;;;;;;;;;;20.54;54.97;95538.31;5114219;28;1000;-55
2023/09/13 07:08:15;;;;;;;;;;;;;;;20.56;56.02;95527.22;5114136;28;960;-55
2023/09/13 07:10:41;;;;;;;;;;;;;;;20.46;56.44;95530.41;5114227;28;1061;-55
2023/09/13 07:13:08;;;;;;;;;;;;;;;20.70;55.86;95531.59;5113995;28;1017;-55
2023/09/13 07:15:34;;;;;;;;;;;;;;;21.09;55.08;95532.47;5114010;28;969;-55
2023/09/13 07:18:00;;;;;;;;;;;;;;;21.17;55.33;95529.50;5113862;28;1017;-55
2023/09/13 07:20:26;;;;;;;;;;;;;;;21.31;54.68;95532.13;5113799;28;1886;-55
2023/09/13 07:22:52;;;;;;;;;;;;;;;21.39;55.11;95529.16;5113805;28;1036;-55
2023/09/13 07:25:18;;;;;;;;;;;;;;;21.64;53.53;95531.91;5113635;28;1096;-54
2023/09/13 07:27:44;;;;;;;;;;;;;;;21.74;53.98;95534.13;5114014;28;1007;-55
2023/09/13 07:30:10;;;;;;;;;;;;;;;21.96;53.13;95537.31;5113652;28;1095;-55
2023/09/13 07:32:37;;;;;;;;;;;;;;;22.09;52.48;95530.91;5095860;28;1012;-55
2023/09/13 07:35:03;;;;;;;;;;;;;;;22.04;52.71;95534.31;5113719;28;1096;-55
2023/09/13 07:37:30;;;;;;;;;;;;;;;22.19;52.77;95531.22;5113776;28;1067;-56
2023/09/13 07:39:57;;;;;;;;;;;;;;;22.29;51.97;95528.88;5095538;28;1914;-55
2023/09/13 07:42:23;;;;;;;;;;;;;;;22.35;51.98;95541.59;5113608;28;1104;-55
2023/09/13 07:44:49;;;;;;;;;;;;;;;22.48;52.35;95535.16;5113563;28;1090;-55
2023/09/13 07:47:15;;;;;;;;;;;;;;;22.54;51.36;95523.34;5113852;28;1040;-55
2023/09/13 07:49:41;;;;;;;;;;;;;;;22.69;51.29;95519.41;5113633;28;1105;-55
2023/09/13 07:52:07;;;;;;;;;;;;;;;22.86;49.32;95516.88;5113706;28;971;-55
2023/09/13 07:54:33;;;;;;;;;;;;;;;23.07;49.90;95518.31;5113454;28;985;-55
2023/09/13 07:56:59;;;;;;;;;;;;;;;23.25;50.04;95506.53;5113521;28;1016;-55
2023/09/13 07:59:26;;;;;;;;;;;;;;;23.35;48.74;95515.00;5097738;28;1914;-55
2023/09/13 08:01:52;;;;;;;;;;;;;;;23.52;47.40;95513.28;5093111;28;1025;-55
2023/09/13 08:04:18;;;;;;;;;;;;;;;23.64;46.99;95509.72;5109393;28;1242;-55
2023/09/13 08:06:44;;;;;;;;;;;;;;;23.99;47.25;95517.16;5113439;28;1179;-55
2023/09/13 08:09:13;;;;;;;;;;;;;;;24.13;46.42;95513.97;5113241;28;1049;-55
2023/09/13 08:11:39;;;;;;;;;;;;;;;24.17;46.84;95519.81;5116517;28;969;-55
2023/09/13 08:14:06;;;;;;;;;;;;;;;24.27;45.25;95519.19;5117217;28;929;-55
2023/09/13 08:16:32;;;;;;;;;;;;;;;24.29;45.15;95511.59;5116291;28;1004;-54
2023/09/13 08:18:58;;;;;;;;;;;;;;;24.45;44.87;95508.13;5116502;28;1918;-55
2023/09/13 08:21:24;;;;;;;;;;;;;;;24.48;44.61;95506.81;5117153;28;1011;-54
2023/09/13 08:23:50;;;;;;;;;;;;;;;24.64;44.45;95511.56;5117211;28;1052;-55
2023/09/13 08:26:16;;;;;;;;;;;;;;;24.72;44.55;95508.47;5116989;28;1036;-55
2023/09/13 08:28:42;;;;;;;;;;;;;;;24.91;44.54;95508.31;5116938;28;1138;-55
2023/09/13 08:31:08;;;;;;;;;;;;;;;25.04;43.52;95508.03;5117192;28;995;-55
2023/09/13 08:33:34;;;;;;;;;;;;;;;25.11;42.68;95505.13;5116969;28;1032;-55
2023/09/13 08:36:01;;;;;;;;;;;;;;;25.21;43.66;95496.28;5117139;28;1039;-55
2023/09/13 08:38:27;;;;;;;;;;;;;;;25.27;43.48;95501.66;5116810;28;1917;-55
2023/09/13 08:40:54;;;;;;;;;;;;;;;25.39;43.26;95498.84;5117047;28;1037;-55
2023/09/13 08:43:21;;;;;;;;;;;;;;;25.55;42.87;95497.22;5116622;28;1023;-55
2023/09/13 08:45:47;;;;;;;;;;;;;;;25.27;42.99;95498.06;5116638;28;1099;-55
2023/09/13 08:48:14;;;;;;;;;;;;;;;25.52;43.99;95498.53;5116756;28;1035;-55
2023/09/13 08:50:41;;;;;;;;;;;;;;;25.63;43.22;95491.34;5116604;28;1096;-55
2023/09/13 08:53:07;;;;;;;;;;;;;;;25.68;43.22;95490.59;5116811;28;1040;-55
2023/09/13 08:55:35;;;;;;;;;;;;;;;25.81;41.89;95487.53;5116360;28;1044;-55
2023/09/13 08:58:02;;;;;;;;;;;;;;;25.81;42.22;95484.78;5119954;27;1256;-55
2023/09/13 09:00:31;;;;;;;;;;;;;;;25.92;42.83;95474.03;5136817;27;1898;-54
2023/09/13 09:02:59;;;;;;;;;;;;;;;25.86;41.58;95487.63;5131832;27;1245;-55
2023/09/13 09:05:26;;;;;;;;;;;;;;;26.03;41.67;95481.34;5097482;28;2691;-55
2023/09/13 09:07:52;;;;;;;;;;;;;;;26.33;41.00;95496.56;5095874;28;1861;-54
2023/09/13 09:10:18;;;;;;;;;;;;;;;26.31;41.89;95488.56;5095657;28;1040;-55
2023/09/13 09:12:49;;;;;;;;;;;;;;;26.41;41.39;95487.91;5095801;28;1033;-56
2023/09/13 09:15:16;;;;;;;;;;;;;;;26.56;41.52;95485.38;5095637;28;1087;-56
2023/09/13 09:17:44;;;;;;;;;;;;;;;26.71;41.41;95473.78;5095670;28;1037;-56
2023/09/13 09:20:10;;;;;;;;;;;;;;;26.79;41.61;95473.38;5095527;28;1901;-56
2023/09/13 09:22:37;;;;;;;;;;;;;;;26.72;40.53;95472.72;5094548;28;1048;-56
2023/09/13 09:25:08;;;;;;;;;;;;;;;26.83;41.20;95470.94;5095734;28;974;-56
2023/09/13 09:27:35;;;;;;;;;;;;;;;26.66;40.28;95460.84;5095746;28;1039;-56
2023/09/13 09:30:05;;;;;;;;;;;;;;;26.85;40.96;95466.03;5095598;28;970;-56
2023/09/13 09:32:31;;;;;;;;;;;;;;;27.02;40.43;95466.78;5095768;28;997;-56
2023/09/13 09:34:58;;;;;;;;;;;;;;;27.12;40.70;95459.75;5095464;28;1017;-57
2023/09/13 09:37:31;;;;;;;;;;;;;;;27.22;40.83;95465.31;5095238;28;1040;-57
2023/09/13 09:39:57;;;;;;;;;;;;;;;27.31;40.50;95452.00;5095501;28;1988;-57
2023/09/13 09:42:23;;;;;;;;;;;;;;;27.37;40.62;95448.22;5095064;28;1106;-57
2023/09/13 09:44:49;;;;;;;;;;;;;;;27.49;39.19;95448.03;5095298;28;968;-56
2023/09/13 09:47:16;;;;;;;;;;;;;;;27.65;40.15;95444.34;5094997;28;913;-56
2023/09/13 09:49:43;;;;;;;;;;;;;;;27.79;40.04;95436.50;5095337;28;958;-57
2023/09/13 09:52:10;;;;;;;;;;;;;;;27.85;39.90;95441.78;5094917;28;1033;-56
2023/09/13 09:54:36;;;;;;;;;;;;;;;27.90;39.26;95435.50;5094925;28;1090;-56
2023/09/13 09:57:03;;;;;;;;;;;;;;;27.91;39.94;95426.19;5094812;28;1301;-57
2023/09/13 09:59:29;;;;;;;;;;;;;;;27.86;39.29;95431.59;5110764;28;1918;-57
2023/09/13 10:01:56;;;;;;;;;;;;;;;27.88;38.99;95426.66;5115266;28;1039;-56
2023/09/13 10:04:22;;;;;;;;;;;;;;;28.01;38.99;95417.19;5132224;27;1083;-56
2023/09/13 10:07:03;;;;;;;;;;;;;;;28.11;39.41;95416.41;5135881;27;988;-56
2023/09/13 10:09:36;;;;;;;;;;;;;;;28.23;40.66;95409.63;5135820;27;1055;-56
2023/09/13 10:12:02;;;;;;;;;;;;;;;28.31;39.81;95410.22;5135697;27;1029;-56
2023/09/13 10:14:28;;;;;;;;;;;;;;;28.30;39.50;95412.13;5135707;27;1076;-56
2023/09/13 10:16:55;;;;;;;;;;;;;;;28.30;38.77;95406.63;5135429;27;960;-56
2023/09/13 10:19:23;;;;;;;;;;;;;;;28.33;36.87;95413.53;5135429;27;1909;-56
2023/09/13 10:21:50;;;;;;;;;;;;;;;28.41;39.04;95402.00;5135528;27;1041;-56
2023/09/13 10:24:17;;;;;;;;;;;;;;;28.52;38.58;95403.75;5135504;27;1040;-55
2023/09/13 10:26:45;;;;;;;;;;;;;;;28.52;38.71;95390.00;5135253;27;1103;-56
2023/09/13 10:29:31;;;;;;;;;;;;;;;28.59;38.73;95387.81;5135410;27;976;-56
2023/09/13 10:32:00;;;;;;;;;;;;;;;28.67;38.28;95391.97;5135411;27;1049;-55
2023/09/13 10:34:26;;;;;;;;;;;;;;;28.71;37.61;95392.28;5135024;27;1027;-56
2023/09/13 10:36:59;;;;;;;;;;;;;;;28.92;39.76;95387.66;5135076;27;1028;-56
2023/09/13 10:39:33;;;;;;;;;;;;;;;29.02;38.47;95384.91;5134945;27;1909;-56
2023/09/13 10:42:07;;;;;;;;;;;;;;;29.04;38.18;95379.97;5135296;27;989;-56
2023/09/13 10:44:34;;;;;;;;;;;;;;;28.87;37.64;95382.13;5135012;27;1044;-56
2023/09/13 10:47:00;;;;;;;;;;;;;;;28.91;38.50;95380.47;5135128;27;1047;-56
2023/09/13 10:49:26;;;;;;;;;;;;;;;28.93;38.14;95370.88;5134954;27;1023;-56
2023/09/13 10:51:54;;;;;;;;;;;;;;;29.01;38.21;95364.81;5134819;27;1024;-55
2023/09/13 10:54:20;;;;;;;;;;;;;;;29.08;38.09;95364.53;5134696;27;928;-56
2023/09/13 10:56:47;;;;;;;;;;;;;;;29.24;38.25;95368.19;5116474;27;922;-56
2023/09/13 10:59:17;;;;;;;;;;;;;;;29.31;38.68;95357.75;5134741;27;1902;-56
2023/09/13 11:01:46;;;;;;;;;;;;;;;29.37;38.58;95356.63;5134736;27;1039;-56
2023/09/13 11:04:13;;;;;;;;;;;;;;;29.32;38.07;95362.13;5118669;27;1032;-56
2023/09/13 11:06:40;;;;;;;;;;;;;;;29.33;37.07;95358.28;5114086;28;1036;-56
2023/09/13 11:09:16;;;;;;;;;;;;;;;29.34;37.01;95351.66;5114062;28;980;-56
2023/09/13 11:11:46;;;;;;;;;;;;;;;29.40;37.29;95355.25;5113885;28;1028;-56
2023/09/13 11:14:17;;;;;;;;;;;;;;;29.45;37.30;95341.47;5114411;28;993;-56
2023/09/13 11:16:45;;;;;;;;;;;;;;;29.47;36.26;95349.47;5113984;28;985;-56
2023/09/13 11:19:12;;;;;;;;;;;;;;;29.52;36.80;95346.69;5113760;28;1893;-55
2023/09/13 11:21:54;;;;;;;;;;;;;;;29.62;38.06;95343.94;5114139;28;1044;-57
2023/09/13 11:24:35;;;;;;;;;;;;;;;29.59;36.05;95344.50;5095874;28;982;-56
2023/09/13 11:27:15;;;;;;;;;;;;;;;29.65;36.59;95340.63;5113825;28;1036;-57
2023/09/13 11:29:42;;;;;;;;;;;;;;;29.66;33.39;95358.81;5113794;28;1075;-56
2023/09/13 11:32:14;;;;;;;;;;;;;;;29.80;34.91;95350.00;5113758;28;1040;-56
2023/09/13 11:34:40;;;;;;;;;;;;;;;29.84;35.88;95332.66;5113986;28;962;-56
2023/09/13 11:37:07;;;;;;;;;;;;;;;29.98;34.67;95335.66;5095990;28;976;-55
2023/09/13 11:39:34;;;;;;;;;;;;;;;30.02;33.10;95336.75;5113748;28;1909;-56
2023/09/13 11:42:00;;;;;;;;;;;;;;;30.12;32.89;95335.88;5113659;28;1044;-56
2023/09/13 11:44:26;;;;;;;;;;;;;;;30.15;32.46;95336.16;5113548;28;1105;-56
2023/09/13 11:46:53;;;;;;;;;;;;;;;30.05;32.59;95335.34;5117341;28;1041;-56
2023/09/13 11:49:23;;;;;;;;;;;;;;;30.15;33.41;95327.06;5117594;28;1021;-56
2023/09/13 11:51:52;;;;;;;;;;;;;;;30.12;32.71;95324.84;5118098;28;976;-56
2023/09/13 11:54:19;;;;;;;;;;;;;;;30.21;32.17;95331.44;5117622;28;1036;-56
2023/09/13 11:56:45;;;;;;;;;;;;;;;30.16;30.47;95329.53;5117806;28;1020;-56
2023/09/13 11:59:14;;;;;;;;;;;;;;;30.13;32.48;95323.75;5103776;28;1898;-56
2023/09/13 12:01:45;;;;;;;;;;;;;;;30.15;31.55;95324.31;5097210;28;1087;-56
2023/09/13 12:04:11;;;;;;;;;;;;;;;30.22;31.96;95316.56;5112350;28;1100;-56
2023/09/13 12:06:44;;;;;;;;;;;;;;;30.21;30.45;95314.09;5117317;28;1103;-56
2023/09/13 12:09:14;;;;;;;;;;;;;;;30.27;30.97;95312.94;5156835;27;2760;-56
2023/09/13 12:11:42;;;;;;;;;;;;;;;30.30;31.32;95309.63;5158788;27;939;-56
2023/09/13 12:14:09;;;;;;;;;;;;;;;30.44;31.31;95307.13;5158592;27;1095;-56
2023/09/13 12:16:36;;;;;;;;;;;;;;;30.44;29.21;95313.44;5158775;27;1043;-56
2023/09/13 12:19:03;;;;;;;;;;;;;;;30.49;30.08;95305.16;5158635;27;1981;-56
2023/09/13 12:21:29;;;;;;;;;;;;;;;30.42;30.38;95303.81;5148073;27;2658;-56
2023/09/13 12:23:55;;;;;;;;;;;;;;;30.40;30.16;95304.09;5137666;27;1094;-56
2023/09/13 12:26:23;;;;;;;;;;;;;;;30.24;30.87;95295.03;5137567;27;1036;-56
2023/09/13 12:28:49;;;;;;;;;;;;;;;29.91;31.02;95289.06;5137819;27;1024;-56
2023/09/13 12:31:16;;;;;;;;;;;;;;;29.75;31.09;95301.25;5137702;27;962;-56
2023/09/13 12:33:43;;;;;;;;;;;;;;;29.91;31.59;95302.84;5137669;27;1084;-56
2023/09/13 12:36:10;;;;;;;;;;;;;;;30.06;30.55;95290.97;5137445;27;1083;-56
2023/09/13 12:38:42;;;;;;;;;;;;;;;30.14;30.88;95284.84;5137461;27;1987;-56
2023/09/13 12:41:08;;;;;;;;;;;;;;;29.87;30.18;95282.47;5137627;27;1036;-56
2023/09/13 12:43:39;;;;;;;;;;;;;;;29.75;30.85;95287.50;5119259;27;988;-56
2023/09/13 12:46:06;;;;;;;;;;;;;;;29.94;31.20;95276.69;5137606;27;1004;-56
2023/09/13 12:48:32;;;;;;;;;;;;;;;30.12;31.53;95273.28;5137493;27;995;-56
2023/09/13 12:50:58;;;;;;;;;;;;;;;30.10;32.27;95274.69;5137474;27;1047;-56
2023/09/13 12:53:27;;;;;;;;;;;;;;;30.04;31.48;95268.38;5137051;27;1032;-56
2023/09/13 12:55:53;;;;;;;;;;;;;;;29.85;29.65;95278.38;5137144;27;1043;-56
2023/09/13 12:58:19;;;;;;;;;;;;;;;29.74;30.95;95275.63;5130489;27;1232;-57
2023/09/13 13:00:53;;;;;;;;;;;;;;;29.78;30.00;95278.66;5116379;28;1985;-56